Time;durP1;ratioP1;P1;durP2;ratioP2;P2;SDS_P1;SDS_P2;PMS_P1;PMS_P2;Temp;Humidity;BMP_temperature;BMP_pressure;BME280_temperature;BME280_humidity;BME280_pressure;Samples;Min_cycle;Max_cycle;Signal;HPM_P1;HPM_P2
2023/10/03 00:00:28;;;;;;;35.17;14.93;;;;;;;;;;4992685;28;20182;-82
2023/10/03 00:03:32;;;;;;;33.33;15.33;;;;;;;;;;5038717;28;20186;-80
2023/10/03 00:06:38;;;;;;;33.30;14.87;;;;;;;;;;4992638;28;20186;-80
2023/10/03 00:09:44;;;;;;;32.27;14.80;;;;;;;;;;4992786;28;20213;-81
2023/10/03 00:12:51;;;;;;;34.70;15.83;;;;;;;;;;4992407;28;20193;-80
2023/10/03 00:15:55;;;;;;;34.37;14.20;;;;;;;;;;4992401;28;20197;-80
2023/10/03 00:18:59;;;;;;;33.57;15.20;;;;;;;;;;5038849;28;20658;-81
2023/10/03 00:22:03;;;;;;;34.27;15.07;;;;;;;;;;4992462;28;20658;-82
2023/10/03 00:25:17;;;;;;;31.93;14.83;;;;;;;;;;5038917;28;20185;-82
2023/10/03 00:28:21;;;;;;;36.77;15.37;;;;;;;;;;4993916;28;20240;-82
2023/10/03 00:31:25;;;;;;;35.37;15.40;;;;;;;;;;5026988;28;20197;-83
2023/10/03 00:34:29;;;;;;;34.60;14.97;;;;;;;;;;5038734;28;20185;-83
2023/10/03 00:37:35;;;;;;;34.40;14.60;;;;;;;;;;5038488;28;20224;-80
2023/10/03 00:40:43;;;;;;;31.50;14.17;;;;;;;;;;4992176;28;20185;-82
2023/10/03 00:43:59;;;;;;;29.97;13.73;;;;;;;;;;5038245;28;20193;-83
2023/10/03 00:47:07;;;;;;;33.53;15.90;;;;;;;;;;5038688;28;20229;-83
2023/10/03 00:50:10;;;;;;;35.47;15.47;;;;;;;;;;5038634;28;20217;-82
2023/10/03 00:53:15;;;;;;;32.30;14.50;;;;;;;;;;5038517;28;20187;-81
2023/10/03 00:56:19;;;;;;;39.50;16.20;;;;;;;;;;4992172;28;20181;-81
2023/10/03 00:59:24;;;;;;;34.27;15.47;;;;;;;;;;4992185;28;20181;-83
2023/10/03 01:02:28;;;;;;;36.27;15.37;;;;;;;;;;5042738;28;20546;-82
2023/10/03 01:05:33;;;;;;;33.20;14.83;;;;;;;;;;4995261;28;20193;-82
2023/10/03 01:08:39;;;;;;;35.03;15.67;;;;;;;;;;5041769;28;20233;-83
2023/10/03 01:11:44;;;;;;;38.00;15.80;;;;;;;;;;4995058;28;20189;-82
2023/10/03 01:14:49;;;;;;;34.00;15.13;;;;;;;;;;5030401;28;20190;-81
2023/10/03 01:17:53;;;;;;;34.43;16.50;;;;;;;;;;5030213;28;20225;-82
2023/10/03 01:21:00;;;;;;;35.13;15.57;;;;;;;;;;5042178;28;20181;-82
2023/10/03 01:24:06;;;;;;;38.57;16.37;;;;;;;;;;4994991;28;20189;-82
2023/10/03 01:27:10;;;;;;;33.83;15.47;;;;;;;;;;5030504;28;20586;-81
2023/10/03 01:30:14;;;;;;;33.83;15.87;;;;;;;;;;5030423;28;20217;-81
2023/10/03 01:33:26;;;;;;;32.77;16.00;;;;;;;;;;5030357;28;20252;-81
2023/10/03 01:36:31;;;;;;;33.47;15.03;;;;;;;;;;5041368;28;20574;-81
2023/10/03 01:39:35;;;;;;;38.70;17.03;;;;;;;;;;5041563;28;20186;-81
2023/10/03 01:42:46;;;;;;;36.50;16.20;;;;;;;;;;5041604;28;20186;-82
2023/10/03 01:45:52;;;;;;;34.47;16.63;;;;;;;;;;5041564;28;20193;-82
2023/10/03 01:48:57;;;;;;;36.67;15.17;;;;;;;;;;4971448;28;20241;-82
2023/10/03 01:52:02;;;;;;;34.33;15.90;;;;;;;;;;5029913;28;20665;-81
2023/10/03 01:55:09;;;;;;;33.10;15.60;;;;;;;;;;5041069;28;20574;-82
2023/10/03 01:58:15;;;;;;;32.87;15.03;;;;;;;;;;5041153;28;20217;-82
2023/10/03 02:01:19;;;;;;;37.77;16.10;;;;;;;;;;5029723;28;20674;-81
2023/10/03 02:04:28;;;;;;;32.33;15.47;;;;;;;;;;5041142;28;20189;-81
2023/10/03 02:07:33;;;;;;;35.97;14.93;;;;;;;;;;4994742;28;20217;-81
2023/10/03 02:10:37;;;;;;;34.87;15.73;;;;;;;;;;4981883;28;20217;-82
2023/10/03 02:13:42;;;;;;;35.53;15.47;;;;;;;;;;5029568;28;20193;-81
2023/10/03 02:16:46;;;;;;;34.30;14.73;;;;;;;;;;5040831;28;20185;-81
2023/10/03 02:19:52;;;;;;;39.53;16.00;;;;;;;;;;5041317;28;20178;-82
2023/10/03 02:22:57;;;;;;;34.40;15.20;;;;;;;;;;4994087;28;20186;-81
2023/10/03 02:26:10;;;;;;;33.07;14.53;;;;;;;;;;5041103;28;20201;-81
2023/10/03 02:29:15;;;;;;;32.47;15.20;;;;;;;;;;4994295;28;20713;-82
2023/10/03 02:32:19;;;;;;;32.07;14.67;;;;;;;;;;5040066;28;20178;-81
2023/10/03 02:35:25;;;;;;;41.30;15.03;;;;;;;;;;4994251;28;20181;-82
2023/10/03 02:38:30;;;;;;;31.67;14.27;;;;;;;;;;4993896;28;20237;-82
2023/10/03 02:41:34;;;;;;;36.77;16.47;;;;;;;;;;4993993;28;20189;-82
2023/10/03 02:44:38;;;;;;;37.07;14.83;;;;;;;;;;5040508;28;20190;-81
2023/10/03 02:47:44;;;;;;;36.10;15.70;;;;;;;;;;5040744;28;20225;-82
2023/10/03 02:50:50;;;;;;;32.13;15.40;;;;;;;;;;5028974;28;20213;-82
2023/10/03 02:53:55;;;;;;;34.23;14.30;;;;;;;;;;5040445;28;20189;-82
2023/10/03 02:56:59;;;;;;;34.57;15.77;;;;;;;;;;5028800;28;20221;-82
2023/10/03 03:00:12;;;;;;;33.47;14.97;;;;;;;;;;5040257;28;20558;-80
2023/10/03 03:03:17;;;;;;;35.93;15.67;;;;;;;;;;5040335;28;20195;-81
2023/10/03 03:06:22;;;;;;;38.40;15.73;;;;;;;;;;5040093;28;20193;-81
2023/10/03 03:09:27;;;;;;;33.40;14.90;;;;;;;;;;5040056;28;20697;-81
2023/10/03 03:12:35;;;;;;;38.70;15.00;;;;;;;;;;5040123;28;20193;-82
2023/10/03 03:15:48;;;;;;;33.53;15.50;;;;;;;;;;4981321;28;20185;-81
2023/10/03 03:18:53;;;;;;;31.97;14.13;;;;;;;;;;4993165;28;20249;-82
2023/10/03 03:21:57;;;;;;;31.90;14.20;;;;;;;;;;4993252;28;20190;-81
2023/10/03 03:25:02;;;;;;;35.63;14.83;;;;;;;;;;4993079;28;20189;-81
2023/10/03 03:28:13;;;;;;;35.37;15.13;;;;;;;;;;4995350;28;20737;-81
2023/10/03 03:31:22;;;;;;;36.20;14.83;;;;;;;;;;4993087;28;20186;-82
2023/10/03 03:34:26;;;;;;;38.97;15.60;;;;;;;;;;4993563;28;20186;-81
2023/10/03 03:37:37;;;;;;;32.90;14.23;;;;;;;;;;4981266;28;20228;-81
2023/10/03 03:40:46;;;;;;;31.50;14.97;;;;;;;;;;5039589;28;20547;-81
2023/10/03 03:43:50;;;;;;;34.90;15.37;;;;;;;;;;5027881;28;20197;-82
2023/10/03 03:46:54;;;;;;;31.60;14.17;;;;;;;;;;4992904;28;20232;-82
2023/10/03 03:50:01;;;;;;;33.67;15.27;;;;;;;;;;4992763;28;20221;-81
2023/10/03 03:53:10;;;;;;;30.60;13.20;;;;;;;;;;4992507;28;20193;-81
2023/10/03 03:56:16;;;;;;;32.73;14.53;;;;;;;;;;4992670;28;20189;-82
2023/10/03 03:59:21;;;;;;;35.43;14.37;;;;;;;;;;4992561;28;20189;-81
2023/10/03 04:02:25;;;;;;;35.63;14.37;;;;;;;;;;5028174;28;20181;-81
2023/10/03 04:05:30;;;;;;;34.17;14.07;;;;;;;;;;4992589;28;20193;-80
2023/10/03 04:08:35;;;;;;;31.80;14.00;;;;;;;;;;4992536;28;20216;-81
2023/10/03 04:11:39;;;;;;;35.90;14.50;;;;;;;;;;4992745;28;20535;-82
2023/10/03 04:14:43;;;;;;;33.10;14.77;;;;;;;;;;4992741;28;20658;-82
2023/10/03 04:17:50;;;;;;;30.43;13.30;;;;;;;;;;5038645;28;20217;-82
2023/10/03 04:20:55;;;;;;;30.10;13.57;;;;;;;;;;4992735;28;20535;-81
2023/10/03 04:24:02;;;;;;;29.93;13.67;;;;;;;;;;4992337;28;20189;-81
2023/10/03 04:27:06;;;;;;;32.20;13.93;;;;;;;;;;4992398;28;20229;-81
2023/10/03 04:30:13;;;;;;;34.60;14.17;;;;;;;;;;4980176;28;20213;-82
2023/10/03 04:33:20;;;;;;;30.40;14.13;;;;;;;;;;4992684;28;20190;-82
2023/10/03 04:36:26;;;;;;;37.33;15.00;;;;;;;;;;5038629;28;20189;-81
2023/10/03 04:39:30;;;;;;;32.27;14.07;;;;;;;;;;5038772;28;20187;-81
2023/10/03 04:42:35;;;;;;;32.43;14.47;;;;;;;;;;4992386;28;20550;-81
2023/10/03 04:45:40;;;;;;;33.20;14.07;;;;;;;;;;5038770;28;20681;-81
2023/10/03 04:48:44;;;;;;;34.37;14.23;;;;;;;;;;4991799;28;20596;-81
2023/10/03 04:51:48;;;;;;;32.13;14.70;;;;;;;;;;5038278;28;20181;-81
2023/10/03 04:54:52;;;;;;;33.43;14.33;;;;;;;;;;4980122;28;20209;-82
2023/10/03 04:57:57;;;;;;;30.60;13.07;;;;;;;;;;4992168;28;20579;-82
2023/10/03 05:01:02;;;;;;;37.73;15.60;;;;;;;;;;5038189;28;20181;-81
2023/10/03 05:04:06;;;;;;;28.13;13.87;;;;;;;;;;5038491;28;20661;-81
2023/10/03 05:07:10;;;;;;;34.50;14.37;;;;;;;;;;5038233;28;20717;-81
2023/10/03 05:10:17;;;;;;;30.03;13.80;;;;;;;;;;4992069;28;20213;-81
2023/10/03 05:13:21;;;;;;;31.00;13.30;;;;;;;;;;4991712;28;20193;-81
2023/10/03 05:16:25;;;;;;;30.27;13.73;;;;;;;;;;4991780;28;20193;-82
2023/10/03 05:19:29;;;;;;;33.43;14.27;;;;;;;;;;4991869;28;20197;-80
2023/10/03 05:22:35;;;;;;;30.57;13.30;;;;;;;;;;5038217;28;20207;-82
2023/10/03 05:25:42;;;;;;;31.27;13.00;;;;;;;;;;5038041;28;20653;-82
2023/10/03 05:28:46;;;;;;;32.10;13.73;;;;;;;;;;4991575;28;20225;-81
2023/10/03 05:31:50;;;;;;;31.70;13.90;;;;;;;;;;4991791;28;20276;-82
2023/10/03 05:34:55;;;;;;;30.23;12.23;;;;;;;;;;5037764;28;20190;-81
2023/10/03 05:37:59;;;;;;;33.53;13.70;;;;;;;;;;4991110;28;20229;-81
2023/10/03 05:41:03;;;;;;;84.10;42.50;;;;;;;;;;4991381;28;20190;-82
2023/10/03 05:44:13;;;;;;;156.90;79.73;;;;;;;;;;4991436;28;20205;-82
2023/10/03 05:47:18;;;;;;;54.53;29.80;;;;;;;;;;5040150;28;20221;-81
2023/10/03 05:50:23;;;;;;;43.00;22.13;;;;;;;;;;4994856;28;20579;-80
2023/10/03 05:53:27;;;;;;;42.30;20.10;;;;;;;;;;4994885;28;20197;-82
2023/10/03 05:56:32;;;;;;;33.23;15.77;;;;;;;;;;5029861;28;20193;-82
2023/10/03 05:59:36;;;;;;;33.40;15.47;;;;;;;;;;4994924;28;20185;-81
2023/10/03 06:02:40;;;;;;;33.47;14.67;;;;;;;;;;4994625;28;20193;-81
2023/10/03 06:05:45;;;;;;;31.50;15.63;;;;;;;;;;4994543;28;20202;-82
2023/10/03 06:08:50;;;;;;;32.53;13.97;;;;;;;;;;5041357;28;20229;-81
2023/10/03 06:11:54;;;;;;;34.73;14.03;;;;;;;;;;4994621;28;20709;-81
2023/10/03 06:14:59;;;;;;;30.00;13.17;;;;;;;;;;5041421;28;20236;-81
2023/10/03 06:18:04;;;;;;;29.47;13.07;;;;;;;;;;4994446;28;20216;-82
2023/10/03 06:21:08;;;;;;;36.13;14.07;;;;;;;;;;4994563;28;20186;-81
2023/10/03 06:24:14;;;;;;;29.57;13.60;;;;;;;;;;4994640;28;20189;-82
2023/10/03 06:27:18;;;;;;;31.20;13.27;;;;;;;;;;4994563;28;20701;-81
2023/10/03 06:30:22;;;;;;;27.10;12.47;;;;;;;;;;4994535;28;20217;-82
2023/10/03 06:33:27;;;;;;;28.70;11.90;;;;;;;;;;4994239;28;20693;-82
2023/10/03 06:36:31;;;;;;;24.93;11.80;;;;;;;;;;4982473;28;20194;-81
2023/10/03 06:39:36;;;;;;;25.03;10.97;;;;;;;;;;4994315;28;20661;-81
2023/10/03 06:42:40;;;;;;;23.27;10.50;;;;;;;;;;4994343;28;20181;-82
2023/10/03 06:45:45;;;;;;;20.73;9.73;;;;;;;;;;4994165;28;20551;-81
2023/10/03 06:48:52;;;;;;;23.00;10.30;;;;;;;;;;4994291;28;20587;-81
2023/10/03 06:51:57;;;;;;;26.03;10.80;;;;;;;;;;4994581;28;20705;-81
2023/10/03 06:55:04;;;;;;;25.83;11.87;;;;;;;;;;4995840;28;20209;-82
2023/10/03 06:58:10;;;;;;;31.00;16.83;;;;;;;;;;5042083;28;20221;-82
2023/10/03 07:01:15;;;;;;;29.47;14.63;;;;;;;;;;5042332;28;20182;-82
2023/10/03 07:04:20;;;;;;;33.80;16.67;;;;;;;;;;4995850;28;20539;-82
2023/10/03 07:07:24;;;;;;;23.70;12.90;;;;;;;;;;4995574;28;20225;-82
2023/10/03 07:10:29;;;;;;;21.60;11.37;;;;;;;;;;5042246;28;20251;-82
2023/10/03 07:13:33;;;;;;;21.50;9.97;;;;;;;;;;5042454;28;20654;-81
2023/10/03 07:16:38;;;;;;;18.17;9.07;;;;;;;;;;4994775;28;20186;-82
2023/10/03 07:19:46;;;;;;;24.40;9.67;;;;;;;;;;4995309;28;20179;-82
2023/10/03 07:22:50;;;;;;;19.23;9.17;;;;;;;;;;4995295;28;20179;-82
2023/10/03 07:25:54;;;;;;;21.50;10.50;;;;;;;;;;5041881;28;20182;-82
2023/10/03 07:29:00;;;;;;;22.87;10.43;;;;;;;;;;4995240;28;20229;-82
2023/10/03 07:32:05;;;;;;;23.10;10.40;;;;;;;;;;4994873;28;20219;-83
2023/10/03 07:35:13;;;;;;;18.57;9.43;;;;;;;;;;4994974;28;20551;-82
2023/10/03 07:38:17;;;;;;;19.97;9.33;;;;;;;;;;4995284;28;20293;-82
2023/10/03 07:41:22;;;;;;;20.17;9.37;;;;;;;;;;4995150;28;20187;-82
2023/10/03 07:44:26;;;;;;;23.17;9.27;;;;;;;;;;5041665;28;20178;-83
2023/10/03 07:47:30;;;;;;;17.50;8.90;;;;;;;;;;4994933;28;20702;-82
2023/10/03 07:50:35;;;;;;;18.73;8.90;;;;;;;;;;4994754;28;20218;-82
2023/10/03 07:53:40;;;;;;;17.77;9.53;;;;;;;;;;4994859;28;20178;-82
2023/10/03 07:56:44;;;;;;;22.90;9.47;;;;;;;;;;5040918;28;20183;-82
2023/10/03 07:59:50;;;;;;;19.97;9.17;;;;;;;;;;4994306;28;20639;-82
2023/10/03 08:02:55;;;;;;;19.77;10.57;;;;;;;;;;4982614;28;20214;-82
2023/10/03 08:06:00;;;;;;;20.77;11.63;;;;;;;;;;4994498;28;20219;-82
2023/10/03 08:09:04;;;;;;;18.90;11.43;;;;;;;;;;4981838;28;20184;-82
2023/10/03 08:12:11;;;;;;;20.87;13.27;;;;;;;;;;4982458;28;20217;-82
2023/10/03 08:15:18;;;;;;;17.37;9.50;;;;;;;;;;4995091;28;20189;-83
2023/10/03 08:18:22;;;;;;;18.10;8.83;;;;;;;;;;4994288;28;20568;-82
2023/10/03 08:21:27;;;;;;;16.73;8.90;;;;;;;;;;4994203;28;20175;-83
2023/10/03 08:24:32;;;;;;;16.80;8.07;;;;;;;;;;4994884;28;20186;-82
2023/10/03 08:27:37;;;;;;;19.23;8.40;;;;;;;;;;4993934;28;20222;-82
2023/10/03 08:30:42;;;;;;;18.47;8.80;;;;;;;;;;5040754;28;20178;-83
2023/10/03 08:33:46;;;;;;;15.63;8.67;;;;;;;;;;4994501;28;20178;-81
2023/10/03 08:36:54;;;;;;;16.47;8.13;;;;;;;;;;4993944;28;20178;-82
2023/10/03 08:39:58;;;;;;;20.40;8.27;;;;;;;;;;4994164;28;20180;-81
2023/10/03 08:43:07;;;;;;;30.77;17.27;;;;;;;;;;5040638;28;20175;-81
2023/10/03 08:46:15;;;;;;;22.23;10.03;;;;;;;;;;4994099;28;20660;-82
2023/10/03 08:49:19;;;;;;;16.13;7.80;;;;;;;;;;4981850;28;20194;-82
2023/10/03 08:52:39;;;;;;;12.33;6.60;;;;;;;;;;5040694;28;20573;-82
2023/10/03 08:55:47;;;;;;;13.05;6.55;;;;;;;;;;4994389;28;20192;-81
2023/10/03 08:58:52;;;;;;;30.17;17.83;;;;;;;;;;5040438;28;20220;-81
2023/10/03 09:02:00;;;;;;;13.35;7.57;;;;;;;;;;4994201;28;20180;-82
2023/10/03 09:05:15;;;;;;;12.85;6.45;;;;;;;;;;4994438;28;20184;-82
2023/10/03 09:08:19;;;;;;;12.60;6.18;;;;;;;;;;4994445;28;20222;-83
2023/10/03 09:11:28;;;;;;;12.07;5.97;;;;;;;;;;4994099;28;20212;-82
2023/10/03 09:14:36;;;;;;;12.93;6.40;;;;;;;;;;4994636;28;20187;-83
2023/10/03 09:17:40;;;;;;;12.45;6.47;;;;;;;;;;4994208;28;20217;-83
2023/10/03 09:20:44;;;;;;;11.05;6.85;;;;;;;;;;4994415;28;20186;-83
2023/10/03 09:24:09;;;;;;;12.30;7.85;;;;;;;;;;4997663;28;20186;-83
2023/10/03 09:27:20;;;;;;;26.33;15.35;;;;;;;;;;4998242;28;20210;-82
2023/10/03 09:30:24;;;;;;;15.85;8.82;;;;;;;;;;5044406;28;20197;-83
2023/10/03 09:33:28;;;;;;;10.68;6.75;;;;;;;;;;4997555;28;20175;-83
2023/10/03 09:36:35;;;;;;;12.73;6.25;;;;;;;;;;4997443;28;20527;-82
2023/10/03 09:39:40;;;;;;;11.25;6.30;;;;;;;;;;5043849;28;20175;-82
2023/10/03 09:42:49;;;;;;;10.82;5.95;;;;;;;;;;5043504;28;20171;-82
2023/10/03 09:45:56;;;;;;;9.85;5.47;;;;;;;;;;4997795;28;20183;-82
2023/10/03 09:49:08;;;;;;;11.13;6.20;;;;;;;;;;4997178;28;20183;-83
2023/10/03 09:52:18;;;;;;;10.40;5.25;;;;;;;;;;4997191;28;20215;-82
2023/10/03 09:55:26;;;;;;;11.35;6.10;;;;;;;;;;4997246;28;20175;-82
2023/10/03 09:58:32;;;;;;;10.50;5.50;;;;;;;;;;4997377;28;20702;-82
2023/10/03 10:01:39;;;;;;;8.60;5.18;;;;;;;;;;5044347;28;20520;-83
2023/10/03 10:04:47;;;;;;;9.88;5.80;;;;;;;;;;4996826;28;20191;-83
2023/10/03 10:08:06;;;;;;;8.50;5.65;;;;;;;;;;4996805;28;20214;-82
2023/10/03 10:11:10;;;;;;;9.10;5.13;;;;;;;;;;4997307;28;20635;-83
2023/10/03 10:14:19;;;;;;;9.50;5.85;;;;;;;;;;4997206;28;20189;-82
2023/10/03 10:17:26;;;;;;;10.75;5.50;;;;;;;;;;4997401;28;20215;-82
2023/10/03 10:20:33;;;;;;;11.40;5.90;;;;;;;;;;5044415;28;20175;-83
2023/10/03 10:23:37;;;;;;;9.48;5.50;;;;;;;;;;4997078;28;20174;-82
2023/10/03 10:26:48;;;;;;;11.43;5.78;;;;;;;;;;4997146;28;20179;-83
2023/10/03 10:30:00;;;;;;;8.50;5.30;;;;;;;;;;4997168;28;20198;-83
2023/10/03 10:33:17;;;;;;;12.15;5.40;;;;;;;;;;4996500;28;20214;-82
2023/10/03 10:36:22;;;;;;;11.68;5.55;;;;;;;;;;5042965;28;20183;-82
2023/10/03 10:39:56;;;;;;;7.05;4.85;;;;;;;;;;4995933;28;20523;-82
2023/10/03 10:43:04;;;;;;;8.07;4.78;;;;;;;;;;4996465;28;20528;-83
2023/10/03 10:46:43;;;;;;;10.60;4.72;;;;;;;;;;4997129;28;20636;-82
2023/10/03 10:49:57;;;;;;;6.95;4.90;;;;;;;;;;4996629;28;20175;-82
2023/10/03 10:53:05;;;;;;;12.18;5.20;;;;;;;;;;4996063;28;20675;-82
2023/10/03 10:56:11;;;;;;;9.88;5.47;;;;;;;;;;4996339;28;20522;-82
2023/10/03 10:59:15;;;;;;;8.77;5.13;;;;;;;;;;4996375;28;20187;-82
2023/10/03 11:02:23;;;;;;;10.63;4.65;;;;;;;;;;4995933;28;20183;-83
2023/10/03 11:05:41;;;;;;;9.00;5.13;;;;;;;;;;4995385;28;20542;-82
2023/10/03 11:08:47;;;;;;;9.45;4.95;;;;;;;;;;5042339;28;20222;-83
2023/10/03 11:11:52;;;;;;;8.35;4.80;;;;;;;;;;4995616;28;20219;-83
2023/10/03 11:14:57;;;;;;;10.82;5.22;;;;;;;;;;4995811;28;20182;-83
2023/10/03 11:18:01;;;;;;;7.82;4.88;;;;;;;;;;4995566;28;20218;-82
2023/10/03 11:21:08;;;;;;;7.82;4.70;;;;;;;;;;4995665;28;20187;-83
2023/10/03 11:24:14;;;;;;;8.00;4.97;;;;;;;;;;4995711;28;20178;-82
2023/10/03 11:27:24;;;;;;;8.32;5.18;;;;;;;;;;5041762;28;20221;-82
2023/10/03 11:30:28;;;;;;;7.60;4.45;;;;;;;;;;4994606;28;20183;-81
2023/10/03 11:33:46;;;;;;;9.00;5.00;;;;;;;;;;4995219;28;20210;-82
2023/10/03 11:36:51;;;;;;;10.70;4.68;;;;;;;;;;4995239;28;20183;-83
2023/10/03 11:40:15;;;;;;;7.90;4.78;;;;;;;;;;4995273;28;20189;-81
2023/10/03 11:43:20;;;;;;;10.30;5.20;;;;;;;;;;5040237;28;20175;-82
2023/10/03 11:46:25;;;;;;;8.63;4.55;;;;;;;;;;4994874;28;20174;-83
2023/10/03 11:49:29;;;;;;;8.57;4.72;;;;;;;;;;5029543;28;20175;-82
2023/10/03 11:52:33;;;;;;;7.43;4.57;;;;;;;;;;4994880;28;20208;-82
2023/10/03 11:55:40;;;;;;;9.95;5.30;;;;;;;;;;4994944;28;20182;-83
2023/10/03 11:58:44;;;;;;;8.00;5.05;;;;;;;;;;4994872;28;20221;-82
2023/10/03 12:01:48;;;;;;;10.10;4.75;;;;;;;;;;4994787;28;20181;-82
2023/10/03 12:04:52;;;;;;;9.55;4.53;;;;;;;;;;4995098;28;20175;-83
2023/10/03 12:07:57;;;;;;;11.07;4.65;;;;;;;;;;5040926;28;20706;-82
2023/10/03 12:11:05;;;;;;;7.70;4.55;;;;;;;;;;4994435;28;20182;-81
2023/10/03 12:14:09;;;;;;;9.77;4.53;;;;;;;;;;4994342;28;20181;-81
2023/10/03 12:17:14;;;;;;;10.60;4.90;;;;;;;;;;4994347;28;20224;-82
2023/10/03 12:20:20;;;;;;;9.38;5.07;;;;;;;;;;5040150;28;20180;-82
2023/10/03 12:23:24;;;;;;;8.18;4.55;;;;;;;;;;5040528;28;20179;-83
2023/10/03 12:26:27;;;;;;;8.27;4.75;;;;;;;;;;4994498;28;20190;-81
2023/10/03 12:29:32;;;;;;;9.32;4.38;;;;;;;;;;4993958;28;20206;-82
2023/10/03 12:32:38;;;;;;;7.85;4.20;;;;;;;;;;4993873;28;20214;-82
2023/10/03 12:35:43;;;;;;;10.27;4.60;;;;;;;;;;4994192;28;20643;-81
2023/10/03 12:38:48;;;;;;;7.15;4.60;;;;;;;;;;4993776;28;20559;-82
2023/10/03 12:41:52;;;;;;;18.77;4.93;;;;;;;;;;4993887;28;20182;-82
2023/10/03 12:45:00;;;;;;;12.23;4.75;;;;;;;;;;4994113;28;20536;-82
2023/10/03 12:48:05;;;;;;;7.75;4.07;;;;;;;;;;5041509;28;20694;-82
2023/10/03 12:51:09;;;;;;;6.70;4.10;;;;;;;;;;4994533;28;20179;-82
2023/10/03 12:54:13;;;;;;;7.40;4.40;;;;;;;;;;4982042;28;20179;-83
2023/10/03 12:57:17;;;;;;;9.98;4.20;;;;;;;;;;5046722;28;20217;-84
2023/10/03 13:00:23;;;;;;;6.95;4.32;;;;;;;;;;5023322;28;20180;-84
2023/10/03 13:03:29;;;;;;;6.35;3.78;;;;;;;;;;5035482;28;20180;-84
2023/10/03 13:06:34;;;;;;;6.85;4.07;;;;;;;;;;5046688;28;20527;-84
2023/10/03 13:09:43;;;;;;;7.05;4.10;;;;;;;;;;5046930;28;20630;-83
2023/10/03 13:12:49;;;;;;;10.13;4.20;;;;;;;;;;5037454;28;20210;-83
2023/10/03 13:15:54;;;;;;;6.95;4.78;;;;;;;;;;5000761;28;20185;-84
2023/10/03 13:19:00;;;;;;;8.77;3.95;;;;;;;;;;5000425;28;20213;-83
2023/10/03 13:22:05;;;;;;;8.63;4.18;;;;;;;;;;5000521;28;20189;-83
2023/10/03 13:25:11;;;;;;;9.10;4.30;;;;;;;;;;5047798;28;20190;-84
2023/10/03 13:28:15;;;;;;;8.55;3.70;;;;;;;;;;5001004;28;20233;-85
2023/10/03 13:31:19;;;;;;;10.02;4.63;;;;;;;;;;5001167;28;20184;-84
2023/10/03 13:34:25;;;;;;;12.48;4.35;;;;;;;;;;5001112;28;20182;-84
2023/10/03 13:37:29;;;;;;;7.25;3.83;;;;;;;;;;5001133;28;20702;-84
2023/10/03 13:40:33;;;;;;;7.60;3.92;;;;;;;;;;5046958;28;20178;-84
2023/10/03 13:43:39;;;;;;;9.65;4.05;;;;;;;;;;5046931;28;20172;-84
2023/10/03 13:46:43;;;;;;;6.93;3.55;;;;;;;;;;5000311;28;20178;-83
2023/10/03 13:49:47;;;;;;;6.65;4.00;;;;;;;;;;5000119;28;20188;-84
2023/10/03 13:52:55;;;;;;;7.75;4.47;;;;;;;;;;5047442;28;20207;-84
2023/10/03 13:56:01;;;;;;;6.35;3.85;;;;;;;;;;4999981;28;20185;-84
2023/10/03 13:59:05;;;;;;;7.63;3.65;;;;;;;;;;5047010;28;20177;-84
2023/10/03 14:02:10;;;;;;;7.20;3.95;;;;;;;;;;5035841;28;20181;-85
2023/10/03 14:05:16;;;;;;;12.73;4.80;;;;;;;;;;4976786;28;20176;-85
2023/10/03 14:08:20;;;;;;;8.40;3.90;;;;;;;;;;5042847;28;20221;-83
2023/10/03 14:11:25;;;;;;;12.02;4.20;;;;;;;;;;4996610;28;20185;-84
2023/10/03 14:14:30;;;;;;;9.02;3.63;;;;;;;;;;4996390;28;20211;-84
2023/10/03 14:17:34;;;;;;;7.35;4.22;;;;;;;;;;5043773;28;20214;-85
2023/10/03 14:20:39;;;;;;;8.43;4.22;;;;;;;;;;5042814;28;20186;-84
2023/10/03 14:23:43;;;;;;;12.75;4.15;;;;;;;;;;5043053;28;20181;-83
2023/10/03 14:26:47;;;;;;;11.30;4.15;;;;;;;;;;4995920;28;20186;-83
2023/10/03 14:29:52;;;;;;;7.45;3.75;;;;;;;;;;4995502;28;20205;-83
2023/10/03 14:32:56;;;;;;;8.77;4.20;;;;;;;;;;4996494;28;20687;-83
2023/10/03 14:36:01;;;;;;;11.15;4.65;;;;;;;;;;4996290;28;20534;-84
2023/10/03 14:39:07;;;;;;;9.05;4.65;;;;;;;;;;5042275;28;20185;-84
2023/10/03 14:42:11;;;;;;;12.00;4.65;;;;;;;;;;4996007;28;20528;-84
2023/10/03 14:45:18;;;;;;;10.70;4.25;;;;;;;;;;4996297;28;20176;-83
2023/10/03 14:48:25;;;;;;;7.47;4.38;;;;;;;;;;4997047;28;20220;-84
2023/10/03 14:51:30;;;;;;;9.85;4.13;;;;;;;;;;5042760;28;20182;-85
2023/10/03 14:54:34;;;;;;;8.75;4.50;;;;;;;;;;5041996;28;20216;-84
2023/10/03 14:57:39;;;;;;;9.10;4.55;;;;;;;;;;4995348;28;20221;-84
2023/10/03 15:00:43;;;;;;;8.23;4.78;;;;;;;;;;5042413;28;20189;-83
2023/10/03 15:03:50;;;;;;;7.57;4.43;;;;;;;;;;4995043;28;20186;-85
2023/10/03 15:06:54;;;;;;;11.10;4.97;;;;;;;;;;4994970;28;20184;-83
2023/10/03 15:09:58;;;;;;;7.18;4.57;;;;;;;;;;4983070;28;20524;-84
2023/10/03 15:13:04;;;;;;;12.52;4.90;;;;;;;;;;5041224;28;20210;-83
2023/10/03 15:16:08;;;;;;;8.23;5.25;;;;;;;;;;5030467;28;20185;-84
2023/10/03 15:19:12;;;;;;;12.50;5.32;;;;;;;;;;4993563;28;20187;-83
2023/10/03 15:22:16;;;;;;;6.32;4.43;;;;;;;;;;4995271;28;20645;-83
2023/10/03 15:25:20;;;;;;;11.88;4.75;;;;;;;;;;5041152;28;20180;-83
2023/10/03 15:28:24;;;;;;;6.50;4.63;;;;;;;;;;4994360;28;20239;-83
2023/10/03 15:31:28;;;;;;;8.88;4.78;;;;;;;;;;5040964;28;20178;-84
2023/10/03 15:34:32;;;;;;;9.82;5.03;;;;;;;;;;4995124;28;20210;-85
2023/10/03 15:37:37;;;;;;;13.00;4.50;;;;;;;;;;5040777;28;20221;-83
2023/10/03 15:40:44;;;;;;;7.43;4.85;;;;;;;;;;4971464;28;20178;-83
2023/10/03 15:43:48;;;;;;;14.52;4.75;;;;;;;;;;5041052;28;20177;-83
2023/10/03 15:46:53;;;;;;;7.75;4.93;;;;;;;;;;4994890;28;20178;-83
2023/10/03 15:49:57;;;;;;;9.25;4.65;;;;;;;;;;4994720;28;20190;-83
2023/10/03 15:53:04;;;;;;;8.82;4.32;;;;;;;;;;4995225;28;20213;-83
2023/10/03 15:56:11;;;;;;;6.30;3.95;;;;;;;;;;4994755;28;20185;-83
2023/10/03 15:59:15;;;;;;;9.48;4.60;;;;;;;;;;4994714;28;20524;-83
2023/10/03 16:02:21;;;;;;;13.27;4.50;;;;;;;;;;4994842;28;20182;-84
2023/10/03 16:05:25;;;;;;;11.60;3.77;;;;;;;;;;4994371;28;20179;-83
2023/10/03 16:08:30;;;;;;;13.87;3.93;;;;;;;;;;4994394;28;20220;-84
2023/10/03 16:11:35;;;;;;;16.13;4.13;;;;;;;;;;4995059;28;20188;-83
2023/10/03 16:14:41;;;;;;;9.53;3.70;;;;;;;;;;4994261;28;20218;-85
2023/10/03 16:17:45;;;;;;;8.20;4.17;;;;;;;;;;5041838;28;20211;-83
2023/10/03 16:20:49;;;;;;;5.20;4.10;;;;;;;;;;4994740;28;20179;-82
2023/10/03 16:23:53;;;;;;;10.87;3.93;;;;;;;;;;5040180;28;20173;-83
2023/10/03 16:26:58;;;;;;;9.43;3.87;;;;;;;;;;5040314;28;20219;-82
2023/10/03 16:30:06;;;;;;;10.23;3.60;;;;;;;;;;4993512;28;20194;-83
2023/10/03 16:33:11;;;;;;;6.40;3.80;;;;;;;;;;4993735;28;20216;-83
2023/10/03 16:36:15;;;;;;;7.30;3.67;;;;;;;;;;4993938;28;20636;-82
2023/10/03 16:39:19;;;;;;;12.37;4.90;;;;;;;;;;4993801;28;20639;-83
2023/10/03 16:42:23;;;;;;;8.83;4.80;;;;;;;;;;4994895;28;20181;-83
2023/10/03 16:45:29;;;;;;;7.40;4.53;;;;;;;;;;4995438;28;20642;-84
2023/10/03 16:48:34;;;;;;;14.37;4.73;;;;;;;;;;5040821;28;20213;-82
2023/10/03 16:51:38;;;;;;;10.43;4.73;;;;;;;;;;4983052;28;20180;-82
2023/10/03 16:54:45;;;;;;;8.80;5.10;;;;;;;;;;4995213;28;20209;-82
2023/10/03 16:57:49;;;;;;;8.67;5.07;;;;;;;;;;4994743;28;20572;-82
2023/10/03 17:00:53;;;;;;;11.03;4.83;;;;;;;;;;4994556;28;20551;-82
2023/10/03 17:03:57;;;;;;;11.27;4.90;;;;;;;;;;5041206;28;20196;-82
2023/10/03 17:07:03;;;;;;;7.00;4.43;;;;;;;;;;4995476;28;20216;-83
2023/10/03 17:10:08;;;;;;;8.23;5.37;;;;;;;;;;5040646;28;20183;-82
2023/10/03 17:13:12;;;;;;;8.33;4.53;;;;;;;;;;4994698;28;20176;-83
2023/10/03 17:16:17;;;;;;;10.73;5.07;;;;;;;;;;5041009;28;20188;-83
2023/10/03 17:19:21;;;;;;;8.97;4.60;;;;;;;;;;5040963;28;20192;-82
2023/10/03 17:22:26;;;;;;;10.43;5.67;;;;;;;;;;4994906;28;20183;-84
2023/10/03 17:25:31;;;;;;;11.63;4.93;;;;;;;;;;5041351;28;20184;-83
2023/10/03 17:28:35;;;;;;;12.93;5.27;;;;;;;;;;4993478;28;20218;-84
2023/10/03 17:31:42;;;;;;;9.43;4.33;;;;;;;;;;5040305;28;20179;-83
2023/10/03 17:34:47;;;;;;;13.20;5.10;;;;;;;;;;5040022;28;20207;-82
2023/10/03 17:37:51;;;;;;;8.23;4.53;;;;;;;;;;4993900;28;20219;-82
2023/10/03 17:40:55;;;;;;;6.70;4.00;;;;;;;;;;5029201;28;20180;-84
2023/10/03 17:44:00;;;;;;;11.93;4.50;;;;;;;;;;5043970;28;20183;-83
2023/10/03 17:47:04;;;;;;;6.43;3.97;;;;;;;;;;4997667;28;20225;-83
2023/10/03 17:50:11;;;;;;;9.50;4.07;;;;;;;;;;4997186;28;20191;-83
2023/10/03 17:53:15;;;;;;;7.60;4.00;;;;;;;;;;4996384;28;20639;-82
2023/10/03 17:56:19;;;;;;;6.43;3.97;;;;;;;;;;4997688;28;20179;-83
2023/10/03 17:59:25;;;;;;;6.27;3.93;;;;;;;;;;5043922;28;20182;-83
2023/10/03 18:02:30;;;;;;;21.17;5.00;;;;;;;;;;5043195;28;20183;-83
2023/10/03 18:05:34;;;;;;;14.13;2.70;;;;;;;;;;4996296;28;20627;-82
2023/10/03 18:08:38;;;;;;;12.30;2.03;;;;;;;;;;4996059;28;20222;-83
2023/10/03 18:11:43;;;;;;;7.43;1.67;;;;;;;;;;4996396;28;20179;-83
2023/10/03 18:14:50;;;;;;;7.37;1.37;;;;;;;;;;4996413;28;20842;-82